sensor_id;sensor_type;location;lat;lon;timestamp;temperature;humidity
62991;DHT22;49084;48.204;16.202;2023-12-22T00:00:19;5.80;99.90
62991;DHT22;49084;48.204;16.202;2023-12-22T00:02:45;5.90;99.90
62991;DHT22;49084;48.204;16.202;2023-12-22T00:05:11;5.90;99.90
62991;DHT22;49084;48.204;16.202;2023-12-22T00:07:36;5.90;99.90
62991;DHT22;49084;48.204;16.202;2023-12-22T00:10:02;6.10;99.90
62991;DHT22;49084;48.204;16.202;2023-12-22T00:12:28;6.20;99.90
62991;DHT22;49084;48.204;16.202;2023-12-22T00:14:53;6.30;99.90
62991;DHT22;49084;48.204;16.202;2023-12-22T00:17:19;6.30;99.90
62991;DHT22;49084;48.204;16.202;2023-12-22T00:19:45;6.20;99.90
62991;DHT22;49084;48.204;16.202;2023-12-22T00:22:10;6.20;99.90
62991;DHT22;49084;48.204;16.202;2023-12-22T00:24:36;6.20;99.90
62991;DHT22;49084;48.204;16.202;2023-12-22T00:27:01;6.20;99.90
62991;DHT22;49084;48.204;16.202;2023-12-22T00:29:28;6.30;99.90
62991;DHT22;49084;48.204;16.202;2023-12-22T00:31:54;6.30;99.90
62991;DHT22;49084;48.204;16.202;2023-12-22T00:34:21;6.30;99.90
62991;DHT22;49084;48.204;16.202;2023-12-22T00:36:47;6.30;99.90
62991;DHT22;49084;48.204;16.202;2023-12-22T00:39:13;6.20;99.90
62991;DHT22;49084;48.204;16.202;2023-12-22T00:41:39;6.20;99.90
62991;DHT22;49084;48.204;16.202;2023-12-22T00:44:04;6.20;99.90
62991;DHT22;49084;48.204;16.202;2023-12-22T00:46:30;6.20;99.90
62991;DHT22;49084;48.204;16.202;2023-12-22T00:48:55;6.20;99.90
62991;DHT22;49084;48.204;16.202;2023-12-22T00:51:21;6.20;99.90
62991;DHT22;49084;48.204;16.202;2023-12-22T00:53:47;6.20;99.90
62991;DHT22;49084;48.204;16.202;2023-12-22T00:56:12;6.10;99.90
62991;DHT22;49084;48.204;16.202;2023-12-22T00:58:39;6.10;99.90
62991;DHT22;49084;48.204;16.202;2023-12-22T01:01:05;6.10;99.90
62991;DHT22;49084;48.204;16.202;2023-12-22T01:03:31;6.10;99.90
62991;DHT22;49084;48.204;16.202;2023-12-22T01:05:56;6.10;99.90
62991;DHT22;49084;48.204;16.202;2023-12-22T01:08:22;6.10;99.90
62991;DHT22;49084;48.204;16.202;2023-12-22T01:10:48;6.20;99.90
62991;DHT22;49084;48.204;16.202;2023-12-22T01:13:14;6.20;99.90
62991;DHT22;49084;48.204;16.202;2023-12-22T01:15:39;6.10;99.90
62991;DHT22;49084;48.204;16.202;2023-12-22T01:18:05;6.20;99.90
62991;DHT22;49084;48.204;16.202;2023-12-22T01:20:31;6.20;99.90
62991;DHT22;49084;48.204;16.202;2023-12-22T01:22:56;6.20;99.90
62991;DHT22;49084;48.204;16.202;2023-12-22T01:25:22;6.20;99.90
62991;DHT22;49084;48.204;16.202;2023-12-22T01:27:49;6.20;99.90
62991;DHT22;49084;48.204;16.202;2023-12-22T01:30:17;6.20;99.90
62991;DHT22;49084;48.204;16.202;2023-12-22T01:32:43;6.20;99.90
62991;DHT22;49084;48.204;16.202;2023-12-22T01:35:09;6.30;99.90
62991;DHT22;49084;48.204;16.202;2023-12-22T01:37:35;6.20;99.90
62991;DHT22;49084;48.204;16.202;2023-12-22T01:40:02;6.30;99.90
62991;DHT22;49084;48.204;16.202;2023-12-22T01:42:28;6.40;99.90
62991;DHT22;49084;48.204;16.202;2023-12-22T01:44:53;6.50;99.90
62991;DHT22;49084;48.204;16.202;2023-12-22T01:47:19;6.50;99.90
62991;DHT22;49084;48.204;16.202;2023-12-22T01:49:45;6.50;99.90
62991;DHT22;49084;48.204;16.202;2023-12-22T01:52:11;6.50;99.90
62991;DHT22;49084;48.204;16.202;2023-12-22T01:54:36;6.50;99.90
62991;DHT22;49084;48.204;16.202;2023-12-22T01:57:02;6.50;99.90
62991;DHT22;49084;48.204;16.202;2023-12-22T01:59:28;6.50;99.90
62991;DHT22;49084;48.204;16.202;2023-12-22T02:01:56;6.40;99.90
62991;DHT22;49084;48.204;16.202;2023-12-22T02:04:22;6.40;99.90
62991;DHT22;49084;48.204;16.202;2023-12-22T02:06:49;6.30;99.90
62991;DHT22;49084;48.204;16.202;2023-12-22T02:09:14;6.30;99.90
62991;DHT22;49084;48.204;16.202;2023-12-22T02:11:40;6.30;99.90
62991;DHT22;49084;48.204;16.202;2023-12-22T02:14:06;6.30;99.90
62991;DHT22;49084;48.204;16.202;2023-12-22T02:16:48;6.30;99.90
62991;DHT22;49084;48.204;16.202;2023-12-22T02:19:43;6.30;99.90
62991;DHT22;49084;48.204;16.202;2023-12-22T02:22:10;6.30;99.90
62991;DHT22;49084;48.204;16.202;2023-12-22T02:24:37;6.30;99.90
62991;DHT22;49084;48.204;16.202;2023-12-22T02:32:37;6.40;99.90
62991;DHT22;49084;48.204;16.202;2023-12-22T02:35:09;6.40;99.90
62991;DHT22;49084;48.204;16.202;2023-12-22T02:37:35;6.30;99.90
62991;DHT22;49084;48.204;16.202;2023-12-22T02:40:02;6.30;99.90
62991;DHT22;49084;48.204;16.202;2023-12-22T02:42:29;6.20;99.90
62991;DHT22;49084;48.204;16.202;2023-12-22T02:44:59;6.10;99.90
62991;DHT22;49084;48.204;16.202;2023-12-22T02:47:25;6.00;99.90
62991;DHT22;49084;48.204;16.202;2023-12-22T02:49:53;5.90;99.90
62991;DHT22;49084;48.204;16.202;2023-12-22T02:52:18;5.90;99.90
62991;DHT22;49084;48.204;16.202;2023-12-22T02:54:44;5.90;99.90
62991;DHT22;49084;48.204;16.202;2023-12-22T02:57:10;5.90;99.90
62991;DHT22;49084;48.204;16.202;2023-12-22T02:59:36;5.90;99.90
62991;DHT22;49084;48.204;16.202;2023-12-22T03:02:02;5.90;99.90
62991;DHT22;49084;48.204;16.202;2023-12-22T03:04:28;5.90;99.90
62991;DHT22;49084;48.204;16.202;2023-12-22T03:06:53;5.90;99.90
62991;DHT22;49084;48.204;16.202;2023-12-22T03:09:19;5.80;99.90
62991;DHT22;49084;48.204;16.202;2023-12-22T03:11:44;5.70;99.90
62991;DHT22;49084;48.204;16.202;2023-12-22T03:14:10;5.70;99.90
62991;DHT22;49084;48.204;16.202;2023-12-22T03:16:36;5.60;99.90
62991;DHT22;49084;48.204;16.202;2023-12-22T03:19:01;5.60;99.90
62991;DHT22;49084;48.204;16.202;2023-12-22T03:21:27;5.50;99.90
62991;DHT22;49084;48.204;16.202;2023-12-22T03:23:53;5.50;99.90
62991;DHT22;49084;48.204;16.202;2023-12-22T03:26:18;5.50;99.90
62991;DHT22;49084;48.204;16.202;2023-12-22T03:28:44;5.50;99.90
62991;DHT22;49084;48.204;16.202;2023-12-22T03:31:09;5.50;99.90
62991;DHT22;49084;48.204;16.202;2023-12-22T03:33:35;5.40;99.90
62991;DHT22;49084;48.204;16.202;2023-12-22T03:36:01;5.40;99.90
62991;DHT22;49084;48.204;16.202;2023-12-22T03:38:26;5.40;99.90
62991;DHT22;49084;48.204;16.202;2023-12-22T03:40:52;5.40;99.90
62991;DHT22;49084;48.204;16.202;2023-12-22T03:43:17;5.40;99.90
62991;DHT22;49084;48.204;16.202;2023-12-22T03:45:43;5.50;99.90
62991;DHT22;49084;48.204;16.202;2023-12-22T03:48:08;5.50;99.90
62991;DHT22;49084;48.204;16.202;2023-12-22T03:50:34;5.40;99.90
62991;DHT22;49084;48.204;16.202;2023-12-22T03:53:00;5.50;99.90
62991;DHT22;49084;48.204;16.202;2023-12-22T03:55:25;5.50;99.90
62991;DHT22;49084;48.204;16.202;2023-12-22T03:57:51;5.40;99.90
62991;DHT22;49084;48.204;16.202;2023-12-22T04:00:17;5.40;99.90
62991;DHT22;49084;48.204;16.202;2023-12-22T04:02:42;5.50;99.90
62991;DHT22;49084;48.204;16.202;2023-12-22T04:05:11;5.50;99.90
62991;DHT22;49084;48.204;16.202;2023-12-22T04:07:37;5.50;99.90
62991;DHT22;49084;48.204;16.202;2023-12-22T04:10:03;5.40;99.90
62991;DHT22;49084;48.204;16.202;2023-12-22T04:12:28;5.40;99.90
62991;DHT22;49084;48.204;16.202;2023-12-22T04:14:54;5.40;99.90
62991;DHT22;49084;48.204;16.202;2023-12-22T04:17:19;5.40;99.90
62991;DHT22;49084;48.204;16.202;2023-12-22T04:19:45;5.40;99.90
62991;DHT22;49084;48.204;16.202;2023-12-22T04:22:11;5.40;99.90
62991;DHT22;49084;48.204;16.202;2023-12-22T04:24:36;5.40;99.90
62991;DHT22;49084;48.204;16.202;2023-12-22T04:27:02;5.40;99.90
62991;DHT22;49084;48.204;16.202;2023-12-22T04:29:28;5.40;99.90
62991;DHT22;49084;48.204;16.202;2023-12-22T04:31:53;5.40;99.90
62991;DHT22;49084;48.204;16.202;2023-12-22T04:34:19;5.50;99.90
62991;DHT22;49084;48.204;16.202;2023-12-22T04:36:44;5.50;99.90
62991;DHT22;49084;48.204;16.202;2023-12-22T04:39:12;5.60;99.90
62991;DHT22;49084;48.204;16.202;2023-12-22T04:41:37;5.60;99.90
62991;DHT22;49084;48.204;16.202;2023-12-22T04:44:04;5.60;99.90
62991;DHT22;49084;48.204;16.202;2023-12-22T04:46:30;5.60;99.90
62991;DHT22;49084;48.204;16.202;2023-12-22T04:48:56;5.70;99.90
62991;DHT22;49084;48.204;16.202;2023-12-22T04:51:21;5.70;99.90
62991;DHT22;49084;48.204;16.202;2023-12-22T04:53:47;5.70;99.90
62991;DHT22;49084;48.204;16.202;2023-12-22T04:56:13;5.70;99.90
62991;DHT22;49084;48.204;16.202;2023-12-22T04:58:39;5.80;99.90
62991;DHT22;49084;48.204;16.202;2023-12-22T05:01:05;5.80;99.90
62991;DHT22;49084;48.204;16.202;2023-12-22T05:03:30;5.80;99.90
62991;DHT22;49084;48.204;16.202;2023-12-22T05:05:56;5.80;99.90
62991;DHT22;49084;48.204;16.202;2023-12-22T05:08:21;5.80;99.90
62991;DHT22;49084;48.204;16.202;2023-12-22T05:10:47;5.80;99.90
62991;DHT22;49084;48.204;16.202;2023-12-22T05:13:13;5.80;99.90
62991;DHT22;49084;48.204;16.202;2023-12-22T05:15:38;5.80;99.90
62991;DHT22;49084;48.204;16.202;2023-12-22T05:18:04;5.90;99.90
62991;DHT22;49084;48.204;16.202;2023-12-22T05:20:30;5.80;99.90
62991;DHT22;49084;48.204;16.202;2023-12-22T05:22:56;5.80;99.90
62991;DHT22;49084;48.204;16.202;2023-12-22T05:25:22;5.80;99.90
62991;DHT22;49084;48.204;16.202;2023-12-22T05:27:47;5.80;99.90
62991;DHT22;49084;48.204;16.202;2023-12-22T05:30:13;5.80;99.90
62991;DHT22;49084;48.204;16.202;2023-12-22T05:32:39;5.80;99.90
62991;DHT22;49084;48.204;16.202;2023-12-22T05:35:05;5.80;99.90
62991;DHT22;49084;48.204;16.202;2023-12-22T05:37:31;5.80;99.90
62991;DHT22;49084;48.204;16.202;2023-12-22T05:39:56;5.80;99.90
62991;DHT22;49084;48.204;16.202;2023-12-22T05:42:22;5.70;99.90
62991;DHT22;49084;48.204;16.202;2023-12-22T05:44:47;5.70;99.90
62991;DHT22;49084;48.204;16.202;2023-12-22T05:47:16;5.60;99.90
62991;DHT22;49084;48.204;16.202;2023-12-22T05:49:41;5.60;99.90
62991;DHT22;49084;48.204;16.202;2023-12-22T05:52:07;5.50;99.90
62991;DHT22;49084;48.204;16.202;2023-12-22T05:54:35;5.40;99.90
62991;DHT22;49084;48.204;16.202;2023-12-22T05:57:01;5.40;99.90
62991;DHT22;49084;48.204;16.202;2023-12-22T05:59:26;5.30;99.90
62991;DHT22;49084;48.204;16.202;2023-12-22T06:01:57;5.30;99.90
62991;DHT22;49084;48.204;16.202;2023-12-22T06:04:24;5.20;99.90
62991;DHT22;49084;48.204;16.202;2023-12-22T06:06:50;5.20;99.90
62991;DHT22;49084;48.204;16.202;2023-12-22T06:09:15;5.20;99.90
62991;DHT22;49084;48.204;16.202;2023-12-22T06:11:42;5.20;99.90
62991;DHT22;49084;48.204;16.202;2023-12-22T06:14:08;5.10;99.90
62991;DHT22;49084;48.204;16.202;2023-12-22T06:16:33;5.10;99.90
62991;DHT22;49084;48.204;16.202;2023-12-22T06:18:59;5.00;99.90
62991;DHT22;49084;48.204;16.202;2023-12-22T06:21:25;5.00;99.90
62991;DHT22;49084;48.204;16.202;2023-12-22T06:23:50;4.90;99.90
62991;DHT22;49084;48.204;16.202;2023-12-22T06:26:16;4.90;99.90
62991;DHT22;49084;48.204;16.202;2023-12-22T06:28:42;4.90;99.90
62991;DHT22;49084;48.204;16.202;2023-12-22T06:31:08;4.80;99.90
62991;DHT22;49084;48.204;16.202;2023-12-22T06:33:43;4.80;99.90
62991;DHT22;49084;48.204;16.202;2023-12-22T06:36:24;4.80;99.90
62991;DHT22;49084;48.204;16.202;2023-12-22T06:38:51;4.70;99.90
62991;DHT22;49084;48.204;16.202;2023-12-22T06:43:48;4.70;99.90
62991;DHT22;49084;48.204;16.202;2023-12-22T06:46:18;4.70;99.90
62991;DHT22;49084;48.204;16.202;2023-12-22T06:48:44;4.70;99.90
62991;DHT22;49084;48.204;16.202;2023-12-22T06:53:45;4.60;99.90
62991;DHT22;49084;48.204;16.202;2023-12-22T06:56:17;4.70;99.90
62991;DHT22;49084;48.204;16.202;2023-12-22T06:58:43;4.70;99.90
62991;DHT22;49084;48.204;16.202;2023-12-22T07:01:09;4.70;99.90
62991;DHT22;49084;48.204;16.202;2023-12-22T07:03:34;4.80;99.90
62991;DHT22;49084;48.204;16.202;2023-12-22T07:06:02;4.70;99.90
62991;DHT22;49084;48.204;16.202;2023-12-22T07:08:28;4.70;99.90
62991;DHT22;49084;48.204;16.202;2023-12-22T07:10:53;4.70;99.90
62991;DHT22;49084;48.204;16.202;2023-12-22T07:13:19;4.70;99.90
62991;DHT22;49084;48.204;16.202;2023-12-22T07:15:45;4.70;99.90
62991;DHT22;49084;48.204;16.202;2023-12-22T07:18:10;4.70;99.90
62991;DHT22;49084;48.204;16.202;2023-12-22T07:20:36;4.70;99.90
62991;DHT22;49084;48.204;16.202;2023-12-22T07:23:01;4.70;99.90
62991;DHT22;49084;48.204;16.202;2023-12-22T07:25:27;4.70;99.90
62991;DHT22;49084;48.204;16.202;2023-12-22T07:27:53;4.80;99.90
62991;DHT22;49084;48.204;16.202;2023-12-22T07:30:18;4.80;99.90
62991;DHT22;49084;48.204;16.202;2023-12-22T07:32:44;5.10;99.90
62991;DHT22;49084;48.204;16.202;2023-12-22T07:35:12;5.30;99.90
62991;DHT22;49084;48.204;16.202;2023-12-22T07:37:38;5.20;99.90
62991;DHT22;49084;48.204;16.202;2023-12-22T07:40:04;5.10;99.90
62991;DHT22;49084;48.204;16.202;2023-12-22T07:42:30;5.00;99.90
62991;DHT22;49084;48.204;16.202;2023-12-22T07:44:55;5.00;99.90
62991;DHT22;49084;48.204;16.202;2023-12-22T07:47:21;5.00;99.90
62991;DHT22;49084;48.204;16.202;2023-12-22T07:49:47;5.00;99.90
62991;DHT22;49084;48.204;16.202;2023-12-22T07:52:15;5.00;99.90
62991;DHT22;49084;48.204;16.202;2023-12-22T07:54:40;5.00;99.90
62991;DHT22;49084;48.204;16.202;2023-12-22T07:57:06;5.00;99.90
62991;DHT22;49084;48.204;16.202;2023-12-22T07:59:32;5.00;99.90
62991;DHT22;49084;48.204;16.202;2023-12-22T08:01:57;5.00;99.90
62991;DHT22;49084;48.204;16.202;2023-12-22T08:04:23;5.00;99.90
62991;DHT22;49084;48.204;16.202;2023-12-22T08:06:48;5.00;99.90
62991;DHT22;49084;48.204;16.202;2023-12-22T08:09:14;5.10;99.90
62991;DHT22;49084;48.204;16.202;2023-12-22T08:11:40;5.10;99.90
62991;DHT22;49084;48.204;16.202;2023-12-22T08:14:05;5.10;99.90
62991;DHT22;49084;48.204;16.202;2023-12-22T08:16:31;5.10;99.90
62991;DHT22;49084;48.204;16.202;2023-12-22T08:18:58;5.10;99.90
62991;DHT22;49084;48.204;16.202;2023-12-22T08:21:23;5.10;99.90
62991;DHT22;49084;48.204;16.202;2023-12-22T08:23:49;5.10;99.90
62991;DHT22;49084;48.204;16.202;2023-12-22T08:26:15;5.10;99.90
62991;DHT22;49084;48.204;16.202;2023-12-22T08:28:42;5.10;99.90
62991;DHT22;49084;48.204;16.202;2023-12-22T08:31:08;5.10;99.90
62991;DHT22;49084;48.204;16.202;2023-12-22T08:33:34;5.20;99.90
62991;DHT22;49084;48.204;16.202;2023-12-22T08:35:59;5.20;99.90
62991;DHT22;49084;48.204;16.202;2023-12-22T08:38:25;5.30;99.90
62991;DHT22;49084;48.204;16.202;2023-12-22T08:40:53;5.40;99.90
62991;DHT22;49084;48.204;16.202;2023-12-22T08:43:19;5.50;99.90
62991;DHT22;49084;48.204;16.202;2023-12-22T08:45:45;5.80;99.90
62991;DHT22;49084;48.204;16.202;2023-12-22T08:48:10;6.10;99.90
62991;DHT22;49084;48.204;16.202;2023-12-22T08:50:36;6.10;99.90
62991;DHT22;49084;48.204;16.202;2023-12-22T08:53:02;6.00;99.90
62991;DHT22;49084;48.204;16.202;2023-12-22T08:55:27;5.80;99.90
62991;DHT22;49084;48.204;16.202;2023-12-22T08:57:53;6.50;99.90
62991;DHT22;49084;48.204;16.202;2023-12-22T09:00:19;7.30;99.90
62991;DHT22;49084;48.204;16.202;2023-12-22T09:02:44;7.70;99.90
62991;DHT22;49084;48.204;16.202;2023-12-22T09:05:10;8.30;99.90
62991;DHT22;49084;48.204;16.202;2023-12-22T09:07:35;8.60;99.90
62991;DHT22;49084;48.204;16.202;2023-12-22T09:10:02;8.70;99.90
62991;DHT22;49084;48.204;16.202;2023-12-22T09:12:28;9.00;99.90
62991;DHT22;49084;48.204;16.202;2023-12-22T09:14:54;9.60;99.80
62991;DHT22;49084;48.204;16.202;2023-12-22T09:17:20;9.50;99.20
62991;DHT22;49084;48.204;16.202;2023-12-22T09:19:45;9.50;99.20
62991;DHT22;49084;48.204;16.202;2023-12-22T09:22:11;9.30;99.20
62991;DHT22;49084;48.204;16.202;2023-12-22T09:24:37;9.20;99.00
62991;DHT22;49084;48.204;16.202;2023-12-22T09:27:04;8.70;99.60
62991;DHT22;49084;48.204;16.202;2023-12-22T09:29:30;8.40;99.90
62991;DHT22;49084;48.204;16.202;2023-12-22T09:31:57;7.90;99.90
62991;DHT22;49084;48.204;16.202;2023-12-22T09:34:26;7.50;99.90
62991;DHT22;49084;48.204;16.202;2023-12-22T09:36:52;7.30;99.90
62991;DHT22;49084;48.204;16.202;2023-12-22T09:39:18;7.40;99.90
62991;DHT22;49084;48.204;16.202;2023-12-22T09:41:48;7.30;99.90
62991;DHT22;49084;48.204;16.202;2023-12-22T09:44:24;6.90;99.90
62991;DHT22;49084;48.204;16.202;2023-12-22T09:46:52;6.60;99.90
62991;DHT22;49084;48.204;16.202;2023-12-22T09:49:19;6.50;99.90
62991;DHT22;49084;48.204;16.202;2023-12-22T09:51:46;6.30;99.90
62991;DHT22;49084;48.204;16.202;2023-12-22T09:54:13;6.20;99.90
62991;DHT22;49084;48.204;16.202;2023-12-22T09:56:40;6.10;99.90
62991;DHT22;49084;48.204;16.202;2023-12-22T09:59:13;6.10;99.90
62991;DHT22;49084;48.204;16.202;2023-12-22T10:01:43;6.00;99.90
62991;DHT22;49084;48.204;16.202;2023-12-22T10:04:09;6.00;99.90
62991;DHT22;49084;48.204;16.202;2023-12-22T10:06:35;5.90;99.90
62991;DHT22;49084;48.204;16.202;2023-12-22T10:09:02;5.90;99.90
62991;DHT22;49084;48.204;16.202;2023-12-22T10:11:32;5.80;99.90
62991;DHT22;49084;48.204;16.202;2023-12-22T10:13:59;5.80;99.90
62991;DHT22;49084;48.204;16.202;2023-12-22T10:16:25;5.90;99.90
62991;DHT22;49084;48.204;16.202;2023-12-22T10:18:51;5.90;99.90
62991;DHT22;49084;48.204;16.202;2023-12-22T10:21:17;5.90;99.90
62991;DHT22;49084;48.204;16.202;2023-12-22T10:23:43;5.90;99.90
62991;DHT22;49084;48.204;16.202;2023-12-22T10:26:11;6.00;99.90
62991;DHT22;49084;48.204;16.202;2023-12-22T10:28:37;6.00;99.90
62991;DHT22;49084;48.204;16.202;2023-12-22T10:31:03;6.10;99.90
62991;DHT22;49084;48.204;16.202;2023-12-22T10:33:32;6.30;99.90
62991;DHT22;49084;48.204;16.202;2023-12-22T10:36:01;6.70;99.90
62991;DHT22;49084;48.204;16.202;2023-12-22T10:38:33;7.30;99.90
62991;DHT22;49084;48.204;16.202;2023-12-22T10:41:02;7.50;99.90
62991;DHT22;49084;48.204;16.202;2023-12-22T10:43:28;7.70;99.90
62991;DHT22;49084;48.204;16.202;2023-12-22T10:45:54;7.60;99.90
62991;DHT22;49084;48.204;16.202;2023-12-22T10:48:21;7.30;99.90
62991;DHT22;49084;48.204;16.202;2023-12-22T10:50:46;7.20;99.90
62991;DHT22;49084;48.204;16.202;2023-12-22T10:53:14;7.50;99.90
62991;DHT22;49084;48.204;16.202;2023-12-22T10:55:39;7.60;99.90
62991;DHT22;49084;48.204;16.202;2023-12-22T10:58:05;8.20;99.90
62991;DHT22;49084;48.204;16.202;2023-12-22T11:00:37;8.50;99.90
62991;DHT22;49084;48.204;16.202;2023-12-22T11:03:07;8.50;99.90
62991;DHT22;49084;48.204;16.202;2023-12-22T11:05:37;9.10;99.90
62991;DHT22;49084;48.204;16.202;2023-12-22T11:08:06;9.60;99.60
62991;DHT22;49084;48.204;16.202;2023-12-22T11:10:33;8.90;99.50
62991;DHT22;49084;48.204;16.202;2023-12-22T11:13:02;8.10;99.90
62991;DHT22;49084;48.204;16.202;2023-12-22T11:15:28;7.70;99.90
62991;DHT22;49084;48.204;16.202;2023-12-22T11:17:56;7.40;99.90
62991;DHT22;49084;48.204;16.202;2023-12-22T11:20:24;7.10;99.90
62991;DHT22;49084;48.204;16.202;2023-12-22T11:22:51;6.80;99.90
62991;DHT22;49084;48.204;16.202;2023-12-22T11:25:18;6.70;99.90
62991;DHT22;49084;48.204;16.202;2023-12-22T11:27:46;6.50;99.90
62991;DHT22;49084;48.204;16.202;2023-12-22T11:30:14;6.50;99.90
62991;DHT22;49084;48.204;16.202;2023-12-22T11:32:40;6.30;99.90
62991;DHT22;49084;48.204;16.202;2023-12-22T11:35:07;6.20;99.90
62991;DHT22;49084;48.204;16.202;2023-12-22T11:37:37;5.80;99.90
62991;DHT22;49084;48.204;16.202;2023-12-22T11:40:03;5.00;99.90
62991;DHT22;49084;48.204;16.202;2023-12-22T11:42:34;4.70;99.90
62991;DHT22;49084;48.204;16.202;2023-12-22T11:45:02;4.70;99.90
62991;DHT22;49084;48.204;16.202;2023-12-22T11:47:29;4.80;99.90
62991;DHT22;49084;48.204;16.202;2023-12-22T11:49:55;5.80;99.90
62991;DHT22;49084;48.204;16.202;2023-12-22T11:52:30;5.90;99.90
62991;DHT22;49084;48.204;16.202;2023-12-22T11:54:56;6.80;99.90
62991;DHT22;49084;48.204;16.202;2023-12-22T12:02:39;6.90;99.90
62991;DHT22;49084;48.204;16.202;2023-12-22T12:05:07;6.80;99.90
62991;DHT22;49084;48.204;16.202;2023-12-22T12:10:13;6.30;99.90
62991;DHT22;49084;48.204;16.202;2023-12-22T12:13:11;6.30;99.90
62991;DHT22;49084;48.204;16.202;2023-12-22T12:15:39;6.60;99.90
62991;DHT22;49084;48.204;16.202;2023-12-22T12:18:05;6.60;99.90
62991;DHT22;49084;48.204;16.202;2023-12-22T12:20:32;6.40;99.90
62991;DHT22;49084;48.204;16.202;2023-12-22T12:22:58;6.20;99.90
62991;DHT22;49084;48.204;16.202;2023-12-22T12:25:28;6.20;99.90
62991;DHT22;49084;48.204;16.202;2023-12-22T12:28:03;6.20;99.90
62991;DHT22;49084;48.204;16.202;2023-12-22T12:30:30;6.20;99.90
62991;DHT22;49084;48.204;16.202;2023-12-22T12:32:59;6.20;99.90
62991;DHT22;49084;48.204;16.202;2023-12-22T12:35:28;6.20;99.90
62991;DHT22;49084;48.204;16.202;2023-12-22T12:37:55;6.20;99.90
62991;DHT22;49084;48.204;16.202;2023-12-22T12:40:21;6.20;99.90
62991;DHT22;49084;48.204;16.202;2023-12-22T12:42:49;6.30;99.90
62991;DHT22;49084;48.204;16.202;2023-12-22T12:45:15;6.20;99.90
62991;DHT22;49084;48.204;16.202;2023-12-22T12:47:55;6.20;99.90
62991;DHT22;49084;48.204;16.202;2023-12-22T12:50:22;6.20;99.90
62991;DHT22;49084;48.204;16.202;2023-12-22T12:52:49;6.10;99.90
62991;DHT22;49084;48.204;16.202;2023-12-22T12:55:17;6.20;99.90
62991;DHT22;49084;48.204;16.202;2023-12-22T12:57:43;6.10;99.90
62991;DHT22;49084;48.204;16.202;2023-12-22T13:00:10;6.10;99.90
62991;DHT22;49084;48.204;16.202;2023-12-22T13:02:36;6.10;99.90
62991;DHT22;49084;48.204;16.202;2023-12-22T13:05:02;6.00;99.90
62991;DHT22;49084;48.204;16.202;2023-12-22T13:07:29;6.00;99.90
62991;DHT22;49084;48.204;16.202;2023-12-22T13:09:55;6.00;99.90
62991;DHT22;49084;48.204;16.202;2023-12-22T13:12:24;6.00;99.90
62991;DHT22;49084;48.204;16.202;2023-12-22T13:14:51;6.00;99.90
62991;DHT22;49084;48.204;16.202;2023-12-22T13:17:17;6.00;99.90
62991;DHT22;49084;48.204;16.202;2023-12-22T13:19:42;6.00;99.90
62991;DHT22;49084;48.204;16.202;2023-12-22T13:22:08;6.10;99.90
62991;DHT22;49084;48.204;16.202;2023-12-22T13:24:34;6.10;99.90
62991;DHT22;49084;48.204;16.202;2023-12-22T13:27:04;6.20;99.90
62991;DHT22;49084;48.204;16.202;2023-12-22T13:29:45;6.20;99.90
62991;DHT22;49084;48.204;16.202;2023-12-22T13:32:18;6.20;99.90
62991;DHT22;49084;48.204;16.202;2023-12-22T13:34:49;6.20;99.90
62991;DHT22;49084;48.204;16.202;2023-12-22T13:37:15;6.20;99.90
62991;DHT22;49084;48.204;16.202;2023-12-22T13:39:41;6.20;99.90
62991;DHT22;49084;48.204;16.202;2023-12-22T13:42:14;6.20;99.90
62991;DHT22;49084;48.204;16.202;2023-12-22T13:44:45;6.20;99.90
62991;DHT22;49084;48.204;16.202;2023-12-22T13:47:13;6.30;99.90
62991;DHT22;49084;48.204;16.202;2023-12-22T13:49:39;6.20;99.90
62991;DHT22;49084;48.204;16.202;2023-12-22T13:52:06;6.30;99.90
62991;DHT22;49084;48.204;16.202;2023-12-22T13:54:33;6.40;99.90
62991;DHT22;49084;48.204;16.202;2023-12-22T13:57:00;6.50;99.70
62991;DHT22;49084;48.204;16.202;2023-12-22T13:59:33;6.60;95.70
62991;DHT22;49084;48.204;16.202;2023-12-22T14:01:59;6.80;94.20
62991;DHT22;49084;48.204;16.202;2023-12-22T14:04:26;6.80;91.80
62991;DHT22;49084;48.204;16.202;2023-12-22T14:06:51;7.00;88.60
62991;DHT22;49084;48.204;16.202;2023-12-22T14:09:17;7.00;86.50
62991;DHT22;49084;48.204;16.202;2023-12-22T14:11:47;7.00;85.50
62991;DHT22;49084;48.204;16.202;2023-12-22T14:14:13;7.00;86.40
62991;DHT22;49084;48.204;16.202;2023-12-22T14:16:38;6.90;85.90
62991;DHT22;49084;48.204;16.202;2023-12-22T14:19:05;6.90;87.40
62991;DHT22;49084;48.204;16.202;2023-12-22T14:21:30;6.90;87.80
62991;DHT22;49084;48.204;16.202;2023-12-22T14:23:56;6.80;88.00
62991;DHT22;49084;48.204;16.202;2023-12-22T14:26:21;6.70;89.80
62991;DHT22;49084;48.204;16.202;2023-12-22T14:28:47;6.60;90.80
62991;DHT22;49084;48.204;16.202;2023-12-22T14:31:16;6.50;91.40
62991;DHT22;49084;48.204;16.202;2023-12-22T14:33:42;6.40;92.50
62991;DHT22;49084;48.204;16.202;2023-12-22T14:36:08;6.20;93.50
62991;DHT22;49084;48.204;16.202;2023-12-22T14:38:33;6.10;94.40
62991;DHT22;49084;48.204;16.202;2023-12-22T14:40:59;5.90;95.60
62991;DHT22;49084;48.204;16.202;2023-12-22T14:43:24;5.80;97.00
62991;DHT22;49084;48.204;16.202;2023-12-22T14:45:50;5.60;98.20
62991;DHT22;49084;48.204;16.202;2023-12-22T14:48:16;5.60;99.20
62991;DHT22;49084;48.204;16.202;2023-12-22T14:50:42;5.50;99.90
62991;DHT22;49084;48.204;16.202;2023-12-22T14:53:07;5.40;99.90
62991;DHT22;49084;48.204;16.202;2023-12-22T14:55:33;5.30;99.90
62991;DHT22;49084;48.204;16.202;2023-12-22T14:57:59;5.20;99.90
62991;DHT22;49084;48.204;16.202;2023-12-22T15:00:25;5.00;99.90
62991;DHT22;49084;48.204;16.202;2023-12-22T15:02:50;4.90;99.90
62991;DHT22;49084;48.204;16.202;2023-12-22T15:05:16;4.90;99.90
62991;DHT22;49084;48.204;16.202;2023-12-22T15:07:42;4.70;99.90
62991;DHT22;49084;48.204;16.202;2023-12-22T15:10:08;4.50;99.90
62991;DHT22;49084;48.204;16.202;2023-12-22T15:12:34;4.50;99.90
62991;DHT22;49084;48.204;16.202;2023-12-22T15:15:03;4.40;99.90
62991;DHT22;49084;48.204;16.202;2023-12-22T15:17:29;4.40;99.90
62991;DHT22;49084;48.204;16.202;2023-12-22T15:19:55;4.30;99.90
62991;DHT22;49084;48.204;16.202;2023-12-22T15:22:21;4.30;99.90
62991;DHT22;49084;48.204;16.202;2023-12-22T15:24:47;4.30;99.90
62991;DHT22;49084;48.204;16.202;2023-12-22T15:27:13;4.40;99.90
62991;DHT22;49084;48.204;16.202;2023-12-22T15:29:39;4.40;99.90
62991;DHT22;49084;48.204;16.202;2023-12-22T15:32:05;4.50;99.90
62991;DHT22;49084;48.204;16.202;2023-12-22T15:34:31;4.60;99.90
62991;DHT22;49084;48.204;16.202;2023-12-22T15:36:56;4.70;99.90
62991;DHT22;49084;48.204;16.202;2023-12-22T15:39:22;4.70;99.90
62991;DHT22;49084;48.204;16.202;2023-12-22T15:41:48;4.70;99.90
62991;DHT22;49084;48.204;16.202;2023-12-22T15:44:14;4.80;99.90